sensor_id;sensor_type;location;lat;lon;timestamp;temperature;humidity
42989;DHT22;28622;43.716;20.668;2022-07-29T00:00:46;21.00;99.90
42989;DHT22;28622;43.716;20.668;2022-07-29T00:03:12;20.90;99.90
42989;DHT22;28622;43.716;20.668;2022-07-29T00:05:39;20.80;99.90
42989;DHT22;28622;43.716;20.668;2022-07-29T00:08:06;20.60;99.90
42989;DHT22;28622;43.716;20.668;2022-07-29T00:10:32;20.70;99.90
42989;DHT22;28622;43.716;20.668;2022-07-29T00:12:58;20.60;99.90
42989;DHT22;28622;43.716;20.668;2022-07-29T00:15:24;20.60;99.90
42989;DHT22;28622;43.716;20.668;2022-07-29T00:17:50;20.50;99.90
42989;DHT22;28622;43.716;20.668;2022-07-29T00:20:16;20.40;99.90
42989;DHT22;28622;43.716;20.668;2022-07-29T00:22:42;20.30;99.90
42989;DHT22;28622;43.716;20.668;2022-07-29T00:25:08;20.30;99.90
42989;DHT22;28622;43.716;20.668;2022-07-29T00:27:35;20.30;99.90
42989;DHT22;28622;43.716;20.668;2022-07-29T00:30:03;20.30;99.90
42989;DHT22;28622;43.716;20.668;2022-07-29T00:32:29;20.30;99.90
42989;DHT22;28622;43.716;20.668;2022-07-29T00:34:55;20.20;99.90
42989;DHT22;28622;43.716;20.668;2022-07-29T00:37:39;20.20;99.90
42989;DHT22;28622;43.716;20.668;2022-07-29T00:40:05;20.20;99.90
42989;DHT22;28622;43.716;20.668;2022-07-29T00:42:44;20.10;99.90
42989;DHT22;28622;43.716;20.668;2022-07-29T00:45:11;20.10;99.90
42989;DHT22;28622;43.716;20.668;2022-07-29T00:47:37;20.10;99.90
42989;DHT22;28622;43.716;20.668;2022-07-29T00:50:04;20.10;99.90
42989;DHT22;28622;43.716;20.668;2022-07-29T00:52:31;20.10;99.90
42989;DHT22;28622;43.716;20.668;2022-07-29T00:54:58;20.20;99.90
42989;DHT22;28622;43.716;20.668;2022-07-29T00:57:23;20.10;99.90
42989;DHT22;28622;43.716;20.668;2022-07-29T00:59:49;20.10;99.90
42989;DHT22;28622;43.716;20.668;2022-07-29T01:02:15;20.10;99.90
42989;DHT22;28622;43.716;20.668;2022-07-29T01:04:41;20.00;99.90
42989;DHT22;28622;43.716;20.668;2022-07-29T01:07:07;20.00;99.90
42989;DHT22;28622;43.716;20.668;2022-07-29T01:09:34;20.00;99.90
42989;DHT22;28622;43.716;20.668;2022-07-29T01:12:01;20.00;99.90
42989;DHT22;28622;43.716;20.668;2022-07-29T01:14:28;19.90;99.90
42989;DHT22;28622;43.716;20.668;2022-07-29T01:17:02;19.90;99.90
42989;DHT22;28622;43.716;20.668;2022-07-29T01:30:02;19.80;99.90
42989;DHT22;28622;43.716;20.668;2022-07-29T01:32:31;19.70;99.90
42989;DHT22;28622;43.716;20.668;2022-07-29T01:37:47;19.70;99.90
42989;DHT22;28622;43.716;20.668;2022-07-29T01:40:30;19.60;99.90
42989;DHT22;28622;43.716;20.668;2022-07-29T01:42:58;19.60;99.90
42989;DHT22;28622;43.716;20.668;2022-07-29T01:45:38;19.70;99.90
42989;DHT22;28622;43.716;20.668;2022-07-29T01:48:19;19.70;99.90
42989;DHT22;28622;43.716;20.668;2022-07-29T01:51:05;19.60;99.90
42989;DHT22;28622;43.716;20.668;2022-07-29T01:53:37;19.60;99.90
42989;DHT22;28622;43.716;20.668;2022-07-29T01:56:04;19.60;99.90
42989;DHT22;28622;43.716;20.668;2022-07-29T01:58:32;19.50;99.90
42989;DHT22;28622;43.716;20.668;2022-07-29T02:01:01;19.60;99.90
42989;DHT22;28622;43.716;20.668;2022-07-29T02:03:29;19.60;99.90
42989;DHT22;28622;43.716;20.668;2022-07-29T02:05:56;19.60;99.90
42989;DHT22;28622;43.716;20.668;2022-07-29T02:08:24;19.70;99.90
42989;DHT22;28622;43.716;20.668;2022-07-29T02:10:51;19.60;99.90
42989;DHT22;28622;43.716;20.668;2022-07-29T02:13:18;19.60;99.90
42989;DHT22;28622;43.716;20.668;2022-07-29T02:15:46;19.60;99.90
42989;DHT22;28622;43.716;20.668;2022-07-29T02:18:17;19.60;99.90
42989;DHT22;28622;43.716;20.668;2022-07-29T02:20:47;19.60;99.90
42989;DHT22;28622;43.716;20.668;2022-07-29T02:23:15;19.50;99.90
42989;DHT22;28622;43.716;20.668;2022-07-29T02:25:42;19.60;99.90
42989;DHT22;28622;43.716;20.668;2022-07-29T02:28:09;19.60;99.90
42989;DHT22;28622;43.716;20.668;2022-07-29T02:30:38;19.60;99.90
42989;DHT22;28622;43.716;20.668;2022-07-29T02:33:07;19.60;99.90
42989;DHT22;28622;43.716;20.668;2022-07-29T02:35:34;19.50;99.90
42989;DHT22;28622;43.716;20.668;2022-07-29T02:38:00;19.60;99.90
42989;DHT22;28622;43.716;20.668;2022-07-29T02:40:46;19.60;99.90
42989;DHT22;28622;43.716;20.668;2022-07-29T02:43:14;19.60;99.90
42989;DHT22;28622;43.716;20.668;2022-07-29T02:45:40;19.60;99.90
42989;DHT22;28622;43.716;20.668;2022-07-29T02:48:12;19.60;99.90
42989;DHT22;28622;43.716;20.668;2022-07-29T02:50:46;19.50;99.90
42989;DHT22;28622;43.716;20.668;2022-07-29T02:53:19;19.50;99.90
42989;DHT22;28622;43.716;20.668;2022-07-29T02:55:51;19.50;99.90
42989;DHT22;28622;43.716;20.668;2022-07-29T02:58:29;19.50;99.90
42989;DHT22;28622;43.716;20.668;2022-07-29T03:01:01;19.20;99.90
42989;DHT22;28622;43.716;20.668;2022-07-29T03:03:35;19.20;99.90
42989;DHT22;28622;43.716;20.668;2022-07-29T03:06:03;19.10;99.90
42989;DHT22;28622;43.716;20.668;2022-07-29T03:08:30;19.00;99.90
42989;DHT22;28622;43.716;20.668;2022-07-29T03:10:57;19.00;99.90
42989;DHT22;28622;43.716;20.668;2022-07-29T03:13:23;19.00;99.90
42989;DHT22;28622;43.716;20.668;2022-07-29T03:15:50;19.00;99.90
42989;DHT22;28622;43.716;20.668;2022-07-29T03:18:16;18.90;99.90
42989;DHT22;28622;43.716;20.668;2022-07-29T03:20:42;18.90;99.90
42989;DHT22;28622;43.716;20.668;2022-07-29T03:23:08;19.00;99.90
42989;DHT22;28622;43.716;20.668;2022-07-29T03:25:34;19.00;99.90
42989;DHT22;28622;43.716;20.668;2022-07-29T03:28:00;19.10;99.90
42989;DHT22;28622;43.716;20.668;2022-07-29T03:30:26;19.10;99.90
42989;DHT22;28622;43.716;20.668;2022-07-29T03:32:52;19.20;99.90
42989;DHT22;28622;43.716;20.668;2022-07-29T03:35:18;19.30;99.90
42989;DHT22;28622;43.716;20.668;2022-07-29T03:37:45;19.30;99.90
42989;DHT22;28622;43.716;20.668;2022-07-29T03:40:22;19.20;99.90
42989;DHT22;28622;43.716;20.668;2022-07-29T03:42:50;19.20;99.90
42989;DHT22;28622;43.716;20.668;2022-07-29T03:45:19;19.20;99.90
42989;DHT22;28622;43.716;20.668;2022-07-29T03:47:56;19.10;99.90
42989;DHT22;28622;43.716;20.668;2022-07-29T03:50:23;19.10;99.90
42989;DHT22;28622;43.716;20.668;2022-07-29T03:52:49;19.10;99.90
42989;DHT22;28622;43.716;20.668;2022-07-29T03:55:16;19.10;99.90
42989;DHT22;28622;43.716;20.668;2022-07-29T03:57:42;19.00;99.90
42989;DHT22;28622;43.716;20.668;2022-07-29T04:00:08;19.00;99.90
42989;DHT22;28622;43.716;20.668;2022-07-29T04:02:36;18.90;99.90
42989;DHT22;28622;43.716;20.668;2022-07-29T04:05:03;18.80;99.90
42989;DHT22;28622;43.716;20.668;2022-07-29T04:07:29;18.80;99.90
42989;DHT22;28622;43.716;20.668;2022-07-29T04:09:55;18.80;99.90
42989;DHT22;28622;43.716;20.668;2022-07-29T04:12:21;18.90;99.90
42989;DHT22;28622;43.716;20.668;2022-07-29T04:14:47;18.90;99.90
42989;DHT22;28622;43.716;20.668;2022-07-29T04:17:12;19.00;99.90
42989;DHT22;28622;43.716;20.668;2022-07-29T04:19:38;19.10;99.90
42989;DHT22;28622;43.716;20.668;2022-07-29T04:22:04;19.10;99.90
42989;DHT22;28622;43.716;20.668;2022-07-29T04:24:30;19.20;99.90
42989;DHT22;28622;43.716;20.668;2022-07-29T04:26:55;19.20;99.90
42989;DHT22;28622;43.716;20.668;2022-07-29T04:29:21;19.30;99.90
42989;DHT22;28622;43.716;20.668;2022-07-29T04:31:47;19.40;99.90
42989;DHT22;28622;43.716;20.668;2022-07-29T04:34:13;19.40;99.90
42989;DHT22;28622;43.716;20.668;2022-07-29T04:36:38;19.50;99.90
42989;DHT22;28622;43.716;20.668;2022-07-29T04:39:04;19.50;99.90
42989;DHT22;28622;43.716;20.668;2022-07-29T04:41:30;19.40;99.90
42989;DHT22;28622;43.716;20.668;2022-07-29T04:43:56;19.50;99.90
42989;DHT22;28622;43.716;20.668;2022-07-29T04:46:22;19.60;99.90
42989;DHT22;28622;43.716;20.668;2022-07-29T04:48:48;19.60;99.90
42989;DHT22;28622;43.716;20.668;2022-07-29T04:51:14;19.70;99.90
42989;DHT22;28622;43.716;20.668;2022-07-29T04:53:40;19.80;99.90
42989;DHT22;28622;43.716;20.668;2022-07-29T04:56:06;19.90;99.90
42989;DHT22;28622;43.716;20.668;2022-07-29T04:58:34;20.00;99.90
42989;DHT22;28622;43.716;20.668;2022-07-29T05:01:00;20.10;99.90
42989;DHT22;28622;43.716;20.668;2022-07-29T05:03:26;20.20;99.90
42989;DHT22;28622;43.716;20.668;2022-07-29T05:05:52;20.30;99.90
42989;DHT22;28622;43.716;20.668;2022-07-29T05:08:17;20.40;99.90
42989;DHT22;28622;43.716;20.668;2022-07-29T05:10:43;20.60;99.90
42989;DHT22;28622;43.716;20.668;2022-07-29T05:13:09;20.60;99.90
42989;DHT22;28622;43.716;20.668;2022-07-29T05:15:35;20.70;99.90
42989;DHT22;28622;43.716;20.668;2022-07-29T05:18:01;20.80;99.90
42989;DHT22;28622;43.716;20.668;2022-07-29T05:20:28;21.00;99.90
42989;DHT22;28622;43.716;20.668;2022-07-29T05:22:58;21.10;99.90
42989;DHT22;28622;43.716;20.668;2022-07-29T05:25:26;21.20;99.90
42989;DHT22;28622;43.716;20.668;2022-07-29T05:27:52;21.30;99.90
42989;DHT22;28622;43.716;20.668;2022-07-29T05:30:18;21.30;99.90
42989;DHT22;28622;43.716;20.668;2022-07-29T05:32:44;21.40;99.90
42989;DHT22;28622;43.716;20.668;2022-07-29T05:35:10;21.60;99.90
42989;DHT22;28622;43.716;20.668;2022-07-29T05:37:36;21.70;99.90
42989;DHT22;28622;43.716;20.668;2022-07-29T05:40:02;21.70;99.90
42989;DHT22;28622;43.716;20.668;2022-07-29T05:42:28;21.80;99.90
42989;DHT22;28622;43.716;20.668;2022-07-29T05:44:54;21.90;99.90
42989;DHT22;28622;43.716;20.668;2022-07-29T05:47:21;22.10;99.90
42989;DHT22;28622;43.716;20.668;2022-07-29T05:49:47;22.10;99.90
42989;DHT22;28622;43.716;20.668;2022-07-29T05:52:13;22.20;99.90
42989;DHT22;28622;43.716;20.668;2022-07-29T05:54:39;22.30;99.90
42989;DHT22;28622;43.716;20.668;2022-07-29T05:57:05;22.40;99.90
42989;DHT22;28622;43.716;20.668;2022-07-29T05:59:34;22.50;99.90
42989;DHT22;28622;43.716;20.668;2022-07-29T06:02:00;22.60;99.90
42989;DHT22;28622;43.716;20.668;2022-07-29T06:04:26;22.70;99.90
42989;DHT22;28622;43.716;20.668;2022-07-29T06:06:52;22.80;99.90
42989;DHT22;28622;43.716;20.668;2022-07-29T06:09:18;23.10;99.90
42989;DHT22;28622;43.716;20.668;2022-07-29T06:11:44;23.30;99.90
42989;DHT22;28622;43.716;20.668;2022-07-29T06:14:10;23.50;99.90
42989;DHT22;28622;43.716;20.668;2022-07-29T06:16:35;23.70;99.90
42989;DHT22;28622;43.716;20.668;2022-07-29T06:19:01;23.90;99.90
42989;DHT22;28622;43.716;20.668;2022-07-29T06:21:27;24.10;99.90
42989;DHT22;28622;43.716;20.668;2022-07-29T06:23:52;24.30;99.90
42989;DHT22;28622;43.716;20.668;2022-07-29T06:26:18;24.60;99.90
42989;DHT22;28622;43.716;20.668;2022-07-29T06:28:44;24.80;99.90
42989;DHT22;28622;43.716;20.668;2022-07-29T06:31:10;25.10;99.90
42989;DHT22;28622;43.716;20.668;2022-07-29T06:33:36;25.10;99.90
42989;DHT22;28622;43.716;20.668;2022-07-29T06:36:04;25.20;99.90
42989;DHT22;28622;43.716;20.668;2022-07-29T06:38:30;25.60;99.90
42989;DHT22;28622;43.716;20.668;2022-07-29T06:40:56;25.80;99.90
42989;DHT22;28622;43.716;20.668;2022-07-29T06:43:26;26.20;99.70
42989;DHT22;28622;43.716;20.668;2022-07-29T06:45:52;26.40;98.30
42989;DHT22;28622;43.716;20.668;2022-07-29T06:48:18;26.60;97.90
42989;DHT22;28622;43.716;20.668;2022-07-29T06:50:44;26.60;97.60
42989;DHT22;28622;43.716;20.668;2022-07-29T06:53:09;26.90;98.00
42989;DHT22;28622;43.716;20.668;2022-07-29T06:55:35;27.00;97.00
42989;DHT22;28622;43.716;20.668;2022-07-29T06:58:02;27.20;96.60
42989;DHT22;28622;43.716;20.668;2022-07-29T07:00:28;27.80;95.70
42989;DHT22;28622;43.716;20.668;2022-07-29T07:02:53;27.80;95.50
42989;DHT22;28622;43.716;20.668;2022-07-29T07:05:19;27.60;95.10
42989;DHT22;28622;43.716;20.668;2022-07-29T07:07:45;27.70;94.90
42989;DHT22;28622;43.716;20.668;2022-07-29T07:10:11;27.70;94.60
42989;DHT22;28622;43.716;20.668;2022-07-29T07:12:36;27.90;94.10
42989;DHT22;28622;43.716;20.668;2022-07-29T07:15:02;27.90;94.00
42989;DHT22;28622;43.716;20.668;2022-07-29T07:17:28;28.00;94.00
42989;DHT22;28622;43.716;20.668;2022-07-29T07:19:54;28.00;94.20
42989;DHT22;28622;43.716;20.668;2022-07-29T07:22:20;28.40;93.50
42989;DHT22;28622;43.716;20.668;2022-07-29T07:24:46;28.60;93.70
42989;DHT22;28622;43.716;20.668;2022-07-29T07:27:11;28.80;93.40
42989;DHT22;28622;43.716;20.668;2022-07-29T07:29:37;28.90;92.80
42989;DHT22;28622;43.716;20.668;2022-07-29T07:32:06;29.30;91.90
42989;DHT22;28622;43.716;20.668;2022-07-29T07:34:32;29.20;91.80
42989;DHT22;28622;43.716;20.668;2022-07-29T07:36:59;29.20;91.50
42989;DHT22;28622;43.716;20.668;2022-07-29T07:39:24;29.80;92.40
42989;DHT22;28622;43.716;20.668;2022-07-29T07:41:51;30.20;91.90
42989;DHT22;28622;43.716;20.668;2022-07-29T07:44:17;30.30;90.30
42989;DHT22;28622;43.716;20.668;2022-07-29T07:46:43;30.50;90.30
42989;DHT22;28622;43.716;20.668;2022-07-29T07:49:10;30.60;88.30
42989;DHT22;28622;43.716;20.668;2022-07-29T07:51:36;30.60;88.50
42989;DHT22;28622;43.716;20.668;2022-07-29T07:54:02;30.70;89.50
42989;DHT22;28622;43.716;20.668;2022-07-29T07:56:28;30.80;86.50
42989;DHT22;28622;43.716;20.668;2022-07-29T07:58:53;30.80;88.30
42989;DHT22;28622;43.716;20.668;2022-07-29T08:01:19;31.00;88.00
42989;DHT22;28622;43.716;20.668;2022-07-29T08:03:49;31.00;87.40
42989;DHT22;28622;43.716;20.668;2022-07-29T08:06:14;31.60;87.10
42989;DHT22;28622;43.716;20.668;2022-07-29T08:08:40;31.90;83.90
42989;DHT22;28622;43.716;20.668;2022-07-29T08:11:06;31.90;81.60
42989;DHT22;28622;43.716;20.668;2022-07-29T08:13:32;32.00;81.80
42989;DHT22;28622;43.716;20.668;2022-07-29T08:15:59;32.20;80.10
42989;DHT22;28622;43.716;20.668;2022-07-29T08:18:28;32.30;80.20
42989;DHT22;28622;43.716;20.668;2022-07-29T08:20:55;32.60;79.60
42989;DHT22;28622;43.716;20.668;2022-07-29T08:23:21;32.30;77.40
42989;DHT22;28622;43.716;20.668;2022-07-29T08:25:49;32.20;77.80
42989;DHT22;28622;43.716;20.668;2022-07-29T08:28:15;32.40;79.20
42989;DHT22;28622;43.716;20.668;2022-07-29T08:30:41;32.40;78.00
42989;DHT22;28622;43.716;20.668;2022-07-29T08:33:07;32.10;78.30
42989;DHT22;28622;43.716;20.668;2022-07-29T08:35:32;32.10;77.80
42989;DHT22;28622;43.716;20.668;2022-07-29T08:37:58;32.40;77.40
42989;DHT22;28622;43.716;20.668;2022-07-29T08:40:24;32.50;77.20
42989;DHT22;28622;43.716;20.668;2022-07-29T08:42:50;32.90;77.80
42989;DHT22;28622;43.716;20.668;2022-07-29T08:47:44;33.50;73.50
42989;DHT22;28622;43.716;20.668;2022-07-29T08:50:11;33.50;72.80
42989;DHT22;28622;43.716;20.668;2022-07-29T08:52:39;33.00;72.60
42989;DHT22;28622;43.716;20.668;2022-07-29T08:55:07;33.10;74.60
42989;DHT22;28622;43.716;20.668;2022-07-29T08:57:35;33.40;73.30
42989;DHT22;28622;43.716;20.668;2022-07-29T09:00:04;33.60;73.80
42989;DHT22;28622;43.716;20.668;2022-07-29T09:02:36;33.80;73.10
42989;DHT22;28622;43.716;20.668;2022-07-29T09:05:04;33.90;70.30
42989;DHT22;28622;43.716;20.668;2022-07-29T09:07:30;33.90;70.60
42989;DHT22;28622;43.716;20.668;2022-07-29T09:09:56;34.10;71.10
42989;DHT22;28622;43.716;20.668;2022-07-29T09:12:22;34.60;69.80
42989;DHT22;28622;43.716;20.668;2022-07-29T09:14:50;35.10;67.90
42989;DHT22;28622;43.716;20.668;2022-07-29T09:17:16;35.70;67.30
42989;DHT22;28622;43.716;20.668;2022-07-29T09:19:43;35.00;68.90
42989;DHT22;28622;43.716;20.668;2022-07-29T09:22:09;35.00;72.00
42989;DHT22;28622;43.716;20.668;2022-07-29T09:24:46;35.30;70.80
42989;DHT22;28622;43.716;20.668;2022-07-29T09:27:25;35.60;69.90
42989;DHT22;28622;43.716;20.668;2022-07-29T09:30:09;35.80;69.10
42989;DHT22;28622;43.716;20.668;2022-07-29T09:32:59;35.90;66.60
42989;DHT22;28622;43.716;20.668;2022-07-29T09:35:27;35.80;66.00
42989;DHT22;28622;43.716;20.668;2022-07-29T09:37:54;35.60;66.20
42989;DHT22;28622;43.716;20.668;2022-07-29T09:40:27;35.50;66.80
42989;DHT22;28622;43.716;20.668;2022-07-29T09:42:54;35.50;65.50
42989;DHT22;28622;43.716;20.668;2022-07-29T09:47:53;35.90;65.30
42989;DHT22;28622;43.716;20.668;2022-07-29T09:50:21;36.10;66.50
42989;DHT22;28622;43.716;20.668;2022-07-29T09:52:52;36.00;66.60
42989;DHT22;28622;43.716;20.668;2022-07-29T09:55:21;36.20;66.50
42989;DHT22;28622;43.716;20.668;2022-07-29T09:57:47;36.50;66.70
42989;DHT22;28622;43.716;20.668;2022-07-29T10:00:16;36.60;65.30
42989;DHT22;28622;43.716;20.668;2022-07-29T10:02:44;36.40;64.00
42989;DHT22;28622;43.716;20.668;2022-07-29T10:10:17;37.10;61.70
42989;DHT22;28622;43.716;20.668;2022-07-29T10:12:55;37.60;60.90
42989;DHT22;28622;43.716;20.668;2022-07-29T10:15:23;37.50;59.90
42989;DHT22;28622;43.716;20.668;2022-07-29T10:17:51;37.10;59.00
42989;DHT22;28622;43.716;20.668;2022-07-29T10:20:17;36.80;60.30
42989;DHT22;28622;43.716;20.668;2022-07-29T10:22:43;36.60;61.70
42989;DHT22;28622;43.716;20.668;2022-07-29T10:25:10;37.20;60.00
42989;DHT22;28622;43.716;20.668;2022-07-29T10:27:36;37.30;59.70
42989;DHT22;28622;43.716;20.668;2022-07-29T10:30:05;37.50;61.00
42989;DHT22;28622;43.716;20.668;2022-07-29T10:32:44;37.80;60.10
42989;DHT22;28622;43.716;20.668;2022-07-29T10:44:00;38.30;58.70
42989;DHT22;28622;43.716;20.668;2022-07-29T10:46:27;37.80;59.90
42989;DHT22;28622;43.716;20.668;2022-07-29T10:54:19;38.40;58.60
42989;DHT22;28622;43.716;20.668;2022-07-29T11:05:06;38.20;59.30
42989;DHT22;28622;43.716;20.668;2022-07-29T11:07:35;37.90;58.70
42989;DHT22;28622;43.716;20.668;2022-07-29T11:15:04;37.50;59.30
42989;DHT22;28622;43.716;20.668;2022-07-29T11:20:31;37.50;61.80
42989;DHT22;28622;43.716;20.668;2022-07-29T11:22:57;37.70;60.30
42989;DHT22;28622;43.716;20.668;2022-07-29T11:25:23;38.00;59.40
42989;DHT22;28622;43.716;20.668;2022-07-29T11:27:49;38.00;58.70
42989;DHT22;28622;43.716;20.668;2022-07-29T11:30:17;37.50;59.20
42989;DHT22;28622;43.716;20.668;2022-07-29T11:32:44;37.50;61.50
42989;DHT22;28622;43.716;20.668;2022-07-29T11:35:15;37.50;60.60
42989;DHT22;28622;43.716;20.668;2022-07-29T11:37:42;37.50;59.20
42989;DHT22;28622;43.716;20.668;2022-07-29T11:40:11;37.40;60.70
42989;DHT22;28622;43.716;20.668;2022-07-29T11:42:38;37.40;59.50
42989;DHT22;28622;43.716;20.668;2022-07-29T11:45:09;37.70;59.10
42989;DHT22;28622;43.716;20.668;2022-07-29T11:48:14;38.10;59.40
42989;DHT22;28622;43.716;20.668;2022-07-29T11:50:35;37.90;59.30
42989;DHT22;28622;43.716;20.668;2022-07-29T11:53:09;37.90;58.60
42989;DHT22;28622;43.716;20.668;2022-07-29T11:55:38;37.60;58.90
42989;DHT22;28622;43.716;20.668;2022-07-29T11:58:04;37.60;59.30
42989;DHT22;28622;43.716;20.668;2022-07-29T12:01:03;37.80;60.20
42989;DHT22;28622;43.716;20.668;2022-07-29T12:03:26;37.90;58.50
42989;DHT22;28622;43.716;20.668;2022-07-29T12:05:52;38.20;58.60
42989;DHT22;28622;43.716;20.668;2022-07-29T12:08:20;38.10;59.20
42989;DHT22;28622;43.716;20.668;2022-07-29T12:10:49;38.20;58.70
42989;DHT22;28622;43.716;20.668;2022-07-29T12:13:17;38.10;58.40
42989;DHT22;28622;43.716;20.668;2022-07-29T12:15:52;38.00;58.20
42989;DHT22;28622;43.716;20.668;2022-07-29T12:18:19;38.10;57.80
42989;DHT22;28622;43.716;20.668;2022-07-29T12:20:49;38.10;57.40
42989;DHT22;28622;43.716;20.668;2022-07-29T12:23:21;38.10;59.70
42989;DHT22;28622;43.716;20.668;2022-07-29T12:25:47;38.10;58.50
42989;DHT22;28622;43.716;20.668;2022-07-29T12:28:14;38.30;59.00
42989;DHT22;28622;43.716;20.668;2022-07-29T12:30:49;38.30;58.70
42989;DHT22;28622;43.716;20.668;2022-07-29T12:33:25;38.30;59.10
42989;DHT22;28622;43.716;20.668;2022-07-29T12:36:00;38.50;58.60
42989;DHT22;28622;43.716;20.668;2022-07-29T12:38:27;38.60;57.40
42989;DHT22;28622;43.716;20.668;2022-07-29T12:40:54;38.40;56.70
42989;DHT22;28622;43.716;20.668;2022-07-29T12:43:21;38.50;56.40
42989;DHT22;28622;43.716;20.668;2022-07-29T12:45:52;38.30;56.50
42989;DHT22;28622;43.716;20.668;2022-07-29T12:48:41;38.20;56.80
42989;DHT22;28622;43.716;20.668;2022-07-29T12:51:08;38.40;57.90
42989;DHT22;28622;43.716;20.668;2022-07-29T12:53:36;38.50;56.80
42989;DHT22;28622;43.716;20.668;2022-07-29T12:56:03;38.40;57.30
42989;DHT22;28622;43.716;20.668;2022-07-29T12:58:36;38.60;57.30
42989;DHT22;28622;43.716;20.668;2022-07-29T13:03:44;38.50;55.60
42989;DHT22;28622;43.716;20.668;2022-07-29T13:11:38;38.20;58.00
42989;DHT22;28622;43.716;20.668;2022-07-29T13:14:05;38.10;56.50
42989;DHT22;28622;43.716;20.668;2022-07-29T13:16:31;37.90;56.70
42989;DHT22;28622;43.716;20.668;2022-07-29T13:19:12;38.40;55.80
42989;DHT22;28622;43.716;20.668;2022-07-29T13:21:39;38.40;55.90
42989;DHT22;28622;43.716;20.668;2022-07-29T13:24:06;38.50;56.30
42989;DHT22;28622;43.716;20.668;2022-07-29T13:26:32;38.40;55.70
42989;DHT22;28622;43.716;20.668;2022-07-29T13:28:58;37.90;56.40
42989;DHT22;28622;43.716;20.668;2022-07-29T13:31:24;37.90;56.90
42989;DHT22;28622;43.716;20.668;2022-07-29T13:33:50;37.90;56.90
42989;DHT22;28622;43.716;20.668;2022-07-29T13:36:16;38.10;56.80
42989;DHT22;28622;43.716;20.668;2022-07-29T13:38:42;38.20;55.90
42989;DHT22;28622;43.716;20.668;2022-07-29T13:41:07;38.00;57.60
42989;DHT22;28622;43.716;20.668;2022-07-29T13:43:33;37.90;58.00
42989;DHT22;28622;43.716;20.668;2022-07-29T13:46:00;37.70;57.40
42989;DHT22;28622;43.716;20.668;2022-07-29T13:48:25;37.50;57.80
42989;DHT22;28622;43.716;20.668;2022-07-29T13:50:51;37.50;59.00
42989;DHT22;28622;43.716;20.668;2022-07-29T13:53:17;37.50;59.00
42989;DHT22;28622;43.716;20.668;2022-07-29T13:55:42;37.50;59.20
42989;DHT22;28622;43.716;20.668;2022-07-29T13:58:08;37.30;58.30
42989;DHT22;28622;43.716;20.668;2022-07-29T14:00:34;37.00;59.10
42989;DHT22;28622;43.716;20.668;2022-07-29T14:03:00;36.80;58.70
42989;DHT22;28622;43.716;20.668;2022-07-29T14:05:25;36.80;59.80
42989;DHT22;28622;43.716;20.668;2022-07-29T14:07:51;36.80;59.70
42989;DHT22;28622;43.716;20.668;2022-07-29T14:10:17;37.00;58.40
42989;DHT22;28622;43.716;20.668;2022-07-29T14:12:43;37.00;58.20
42989;DHT22;28622;43.716;20.668;2022-07-29T14:15:09;37.00;58.90
42989;DHT22;28622;43.716;20.668;2022-07-29T14:17:34;37.10;57.60
42989;DHT22;28622;43.716;20.668;2022-07-29T14:20:01;37.00;57.30
42989;DHT22;28622;43.716;20.668;2022-07-29T14:22:26;37.30;58.60
42989;DHT22;28622;43.716;20.668;2022-07-29T14:24:52;37.30;59.40
42989;DHT22;28622;43.716;20.668;2022-07-29T14:27:18;37.20;57.70
42989;DHT22;28622;43.716;20.668;2022-07-29T14:29:44;37.30;58.80
42989;DHT22;28622;43.716;20.668;2022-07-29T14:32:10;37.30;58.10
42989;DHT22;28622;43.716;20.668;2022-07-29T14:34:37;37.00;57.20
42989;DHT22;28622;43.716;20.668;2022-07-29T14:37:03;37.00;57.90
42989;DHT22;28622;43.716;20.668;2022-07-29T14:39:31;37.10;58.50
42989;DHT22;28622;43.716;20.668;2022-07-29T14:41:56;37.20;57.10
42989;DHT22;28622;43.716;20.668;2022-07-29T14:44:22;37.20;56.70
42989;DHT22;28622;43.716;20.668;2022-07-29T14:46:49;37.10;57.10
42989;DHT22;28622;43.716;20.668;2022-07-29T14:49:15;37.10;56.30
42989;DHT22;28622;43.716;20.668;2022-07-29T14:51:40;37.10;56.20
42989;DHT22;28622;43.716;20.668;2022-07-29T14:54:07;36.90;56.70
42989;DHT22;28622;43.716;20.668;2022-07-29T14:56:32;36.90;58.80
42989;DHT22;28622;43.716;20.668;2022-07-29T14:58:58;36.90;57.60
42989;DHT22;28622;43.716;20.668;2022-07-29T15:01:24;36.90;56.90
42989;DHT22;28622;43.716;20.668;2022-07-29T15:03:50;37.10;57.50
42989;DHT22;28622;43.716;20.668;2022-07-29T15:06:16;37.00;57.70
42989;DHT22;28622;43.716;20.668;2022-07-29T15:08:42;36.90;57.30
42989;DHT22;28622;43.716;20.668;2022-07-29T15:11:08;37.00;58.00
42989;DHT22;28622;43.716;20.668;2022-07-29T15:13:34;36.90;58.40
42989;DHT22;28622;43.716;20.668;2022-07-29T15:16:00;36.80;57.60
42989;DHT22;28622;43.716;20.668;2022-07-29T15:18:25;36.60;57.70
42989;DHT22;28622;43.716;20.668;2022-07-29T15:20:51;36.50;57.90
42989;DHT22;28622;43.716;20.668;2022-07-29T15:23:17;36.40;57.90
42989;DHT22;28622;43.716;20.668;2022-07-29T15:25:43;36.30;58.20
42989;DHT22;28622;43.716;20.668;2022-07-29T15:28:08;36.30;58.70
42989;DHT22;28622;43.716;20.668;2022-07-29T15:30:35;36.30;58.50
42989;DHT22;28622;43.716;20.668;2022-07-29T15:33:07;36.30;57.90
42989;DHT22;28622;43.716;20.668;2022-07-29T15:35:34;36.20;58.10
42989;DHT22;28622;43.716;20.668;2022-07-29T15:38:00;36.10;58.10
42989;DHT22;28622;43.716;20.668;2022-07-29T15:40:26;35.90;58.50
42989;DHT22;28622;43.716;20.668;2022-07-29T15:42:52;36.00;59.60
42989;DHT22;28622;43.716;20.668;2022-07-29T15:45:18;35.90;58.30
42989;DHT22;28622;43.716;20.668;2022-07-29T15:47:44;35.80;58.30
42989;DHT22;28622;43.716;20.668;2022-07-29T15:50:09;35.90;58.50
42989;DHT22;28622;43.716;20.668;2022-07-29T15:52:40;35.80;58.50
42989;DHT22;28622;43.716;20.668;2022-07-29T15:55:06;35.70;58.30
42989;DHT22;28622;43.716;20.668;2022-07-29T15:57:32;35.50;59.10
42989;DHT22;28622;43.716;20.668;2022-07-29T15:59:58;35.40;58.40
42989;DHT22;28622;43.716;20.668;2022-07-29T16:02:24;35.30;58.70
42989;DHT22;28622;43.716;20.668;2022-07-29T16:04:50;35.30;59.10
42989;DHT22;28622;43.716;20.668;2022-07-29T16:07:16;35.30;58.90
42989;DHT22;28622;43.716;20.668;2022-07-29T16:09:43;35.20;59.30
42989;DHT22;28622;43.716;20.668;2022-07-29T16:12:09;35.10;59.30
42989;DHT22;28622;43.716;20.668;2022-07-29T16:14:35;35.10;59.30
42989;DHT22;28622;43.716;20.668;2022-07-29T16:17:00;35.00;59.10
42989;DHT22;28622;43.716;20.668;2022-07-29T16:19:28;34.90;59.20